createdAt,value
2023-02-22T02:15:51.574Z,22.70
2023-02-22T02:18:21.416Z,22.80
2023-02-22T02:21:09.847Z,22.80
2023-02-22T02:24:17.222Z,22.90
2023-02-22T02:27:25.993Z,23.00
2023-02-22T02:30:34.717Z,23.20
2023-02-22T02:33:31.527Z,23.20
2023-02-22T02:36:26.555Z,23.30
2023-02-22T02:39:27.564Z,23.40
2023-02-22T02:41:59.611Z,23.50
2023-02-22T02:44:41.470Z,23.60
2023-02-22T02:47:19.680Z,23.60
2023-02-22T02:50:28.531Z,23.70
2023-02-22T02:53:01.701Z,23.80
2023-02-22T02:55:33.726Z,24.00
2023-02-22T02:58:03.346Z,24.10
2023-02-22T03:00:40.960Z,24.10
2023-02-22T03:03:46.660Z,24.30
2023-02-22T03:06:55.450Z,24.40
2023-02-22T03:10:04.148Z,24.40
2023-02-22T03:12:47.444Z,24.50
2023-02-22T03:15:41.688Z,24.70
2023-02-22T03:18:31.673Z,24.70
2023-02-22T03:21:25.946Z,24.80
2023-02-22T03:24:20.742Z,24.90
2023-02-22T03:27:13.767Z,25.00
2023-02-22T03:29:47.548Z,25.10
2023-02-22T03:32:24.371Z,25.20
2023-02-22T03:35:12.892Z,25.30
2023-02-22T03:37:47.173Z,25.40
2023-02-22T03:40:28.110Z,25.50
2023-02-22T03:43:08.810Z,25.50
2023-02-22T03:45:40.532Z,25.60
2023-02-22T03:48:29.540Z,25.70
2023-02-22T03:51:00.319Z,25.80
2023-02-22T03:53:32.200Z,25.80
2023-02-22T03:56:03.478Z,26.00
2023-02-22T03:58:36.622Z,26.10
2023-02-22T04:01:06.661Z,26.10
2023-02-22T04:03:36.393Z,26.30
2023-02-22T04:06:06.144Z,26.30
2023-02-22T04:08:35.804Z,26.30
2023-02-22T04:11:05.587Z,26.40
2023-02-22T04:13:35.207Z,26.40
2023-02-22T04:16:05.047Z,26.40
2023-02-22T04:18:35.847Z,26.50
2023-02-22T04:21:06.254Z,26.50
2023-02-22T04:23:35.902Z,26.50
2023-02-22T04:26:05.628Z,26.60
2023-02-22T04:28:35.238Z,26.80
2023-02-22T04:31:04.867Z,26.80
2023-02-22T04:33:34.679Z,26.90
2023-02-22T04:36:04.484Z,27.00
2023-02-22T04:38:34.147Z,27.10
2023-02-22T04:41:03.905Z,27.20
2023-02-22T04:43:33.569Z,27.30
2023-02-22T04:46:03.147Z,27.40
2023-02-22T04:48:33.120Z,27.50
2023-02-22T04:51:02.775Z,27.60
2023-02-22T04:53:32.466Z,27.60
2023-02-22T04:56:02.402Z,27.70
2023-02-22T04:58:33.380Z,27.80
2023-02-22T05:01:03.449Z,27.90
2023-02-22T05:03:33.476Z,27.90
2023-02-22T05:06:03.229Z,28.00
2023-02-22T05:08:32.938Z,28.20
2023-02-22T05:11:02.620Z,28.30
2023-02-22T05:13:32.217Z,28.40
2023-02-22T05:16:01.880Z,28.40
2023-02-22T05:18:31.560Z,28.30
2023-02-22T05:21:01.828Z,28.30
2023-02-22T05:23:31.617Z,28.30
2023-02-22T05:26:01.816Z,28.40
2023-02-22T05:28:31.464Z,28.50
2023-02-22T05:31:01.293Z,28.60
2023-02-22T05:33:30.888Z,28.70
2023-02-22T05:36:00.490Z,28.80
2023-02-22T05:38:30.380Z,28.90
2023-02-22T05:40:59.942Z,29.00
2023-02-22T05:43:29.599Z,28.90
2023-02-22T05:45:59.389Z,28.90
2023-02-22T05:48:28.960Z,28.80
2023-02-22T05:50:59.235Z,28.80
2023-02-22T05:53:29.490Z,28.70
2023-02-22T05:55:59.206Z,28.70
2023-02-22T05:58:28.975Z,28.70
2023-02-22T06:00:58.776Z,28.80
2023-02-22T06:03:28.440Z,29.00
2023-02-22T06:05:58.127Z,29.20
2023-02-22T06:08:27.793Z,29.30
2023-02-22T06:10:57.539Z,29.40
2023-02-22T06:13:27.150Z,29.50
2023-02-22T06:15:57.009Z,29.70
2023-02-22T06:18:28.368Z,29.70
2023-02-22T06:20:58.059Z,29.70
2023-02-22T06:23:29.686Z,29.80
2023-02-22T06:25:59.405Z,29.80
2023-02-22T06:28:29.253Z,29.80
2023-02-22T06:30:59.108Z,29.90
2023-02-22T06:33:28.767Z,30.00
2023-02-22T06:35:58.455Z,30.10
2023-02-22T06:38:29.414Z,30.20
2023-02-22T06:40:59.053Z,30.30
2023-02-22T06:43:28.746Z,30.30
2023-02-22T06:45:58.505Z,30.20
2023-02-22T06:48:28.218Z,30.00
2023-02-22T06:50:57.866Z,29.80
2023-02-22T06:53:27.523Z,29.80
2023-02-22T06:55:57.429Z,29.90
2023-02-22T06:58:27.077Z,30.00
2023-02-22T07:00:56.823Z,30.10
2023-02-22T07:03:26.666Z,30.10
2023-02-22T07:05:57.093Z,30.10
2023-02-22T07:08:26.763Z,29.90
2023-02-22T07:10:56.810Z,29.90
2023-02-22T07:13:26.424Z,29.90
2023-02-22T07:15:56.259Z,30.00
2023-02-22T07:18:25.952Z,30.10
2023-02-22T07:20:56.026Z,30.20
2023-02-22T07:23:25.897Z,30.30
2023-02-22T07:25:56.644Z,30.40
2023-02-22T07:28:26.298Z,30.60
2023-02-22T07:30:55.955Z,30.70
2023-02-22T07:33:25.758Z,30.80
2023-02-22T07:35:55.368Z,30.90
2023-02-22T07:38:24.944Z,31.10
2023-02-22T07:40:54.606Z,31.10
2023-02-22T07:43:27.327Z,31.20
2023-02-22T07:45:58.624Z,31.20
2023-02-22T07:48:30.427Z,31.20
2023-02-22T07:51:00.746Z,31.20
2023-02-22T07:53:33.408Z,31.20
2023-02-22T07:56:06.859Z,31.10
2023-02-22T07:58:37.078Z,31.20
2023-02-22T08:01:07.674Z,31.10
2023-02-22T08:03:39.554Z,31.10
2023-02-22T08:06:10.334Z,31.10
2023-02-22T08:08:40.062Z,31.20
2023-02-22T08:11:09.799Z,31.30
2023-02-22T08:13:40.638Z,31.30
2023-02-22T08:16:10.878Z,31.30
2023-02-22T08:18:42.657Z,31.20
2023-02-22T08:21:12.317Z,31.10
2023-02-22T08:23:41.982Z,31.00
2023-02-22T08:26:17.248Z,31.00
2023-02-22T08:28:46.985Z,31.00
2023-02-22T08:31:16.911Z,31.10
2023-02-22T08:33:50.863Z,31.10
2023-02-22T08:36:20.567Z,31.10
2023-02-22T08:38:50.420Z,31.10
2023-02-22T08:41:20.117Z,31.20
2023-02-22T08:43:49.757Z,31.20
2023-02-22T08:46:20.432Z,31.30
2023-02-22T08:48:54.336Z,31.40
2023-02-22T08:51:24.895Z,31.50
2023-02-22T08:53:55.210Z,31.50
2023-02-22T08:56:25.028Z,31.50
2023-02-22T08:58:54.675Z,31.50
2023-02-22T09:01:33.010Z,31.50
2023-02-22T09:04:03.948Z,31.50
2023-02-22T09:06:33.681Z,31.60
2023-02-22T09:09:03.848Z,31.60
2023-02-22T09:11:33.536Z,31.70
2023-02-22T09:14:03.252Z,31.70
2023-02-22T09:16:33.789Z,31.70
2023-02-22T09:19:03.492Z,31.70
2023-02-22T09:21:33.337Z,31.60
2023-02-22T09:24:09.957Z,31.70
2023-02-22T09:26:41.888Z,31.70
2023-02-22T09:29:12.223Z,31.70
2023-02-22T09:31:43.623Z,31.70
2023-02-22T09:34:17.057Z,31.70
2023-02-22T09:36:48.277Z,31.50
2023-02-22T09:39:19.608Z,31.50
2023-02-22T09:42:29.328Z,31.50
2023-02-22T09:45:29.661Z,31.50
2023-02-22T09:48:20.729Z,31.40
2023-02-22T09:50:54.854Z,31.30
2023-02-22T09:53:43.432Z,31.00
2023-02-22T09:56:16.653Z,30.80
2023-02-22T09:58:49.419Z,30.80
2023-02-22T10:01:45.071Z,30.80
2023-02-22T10:04:44.894Z,30.70
2023-02-22T10:07:30.254Z,30.80
2023-02-22T10:10:07.897Z,30.70
2023-02-22T10:13:15.695Z,30.70
2023-02-22T10:16:01.750Z,30.70
2023-02-22T10:19:12.427Z,30.70
2023-02-22T10:22:06.733Z,30.60
2023-02-22T10:24:58.186Z,30.60
2023-02-22T10:27:39.098Z,30.50
2023-02-22T10:30:25.314Z,30.50
2023-02-22T10:33:07.453Z,30.40
2023-02-22T10:35:42.658Z,30.30
2023-02-22T10:38:26.080Z,30.20
2023-02-22T10:41:25.971Z,30.10
2023-02-22T10:43:55.701Z,30.00
2023-02-22T10:46:25.872Z,29.90
2023-02-22T10:49:01.924Z,29.80
2023-02-22T10:51:32.285Z,29.80
2023-02-22T10:54:28.673Z,29.80
2023-02-22T10:57:00.025Z,29.70
2023-02-22T10:59:49.244Z,29.70
2023-02-22T11:02:33.751Z,29.60
2023-02-22T11:05:06.392Z,29.60
2023-02-22T11:07:39.831Z,29.50
2023-02-22T11:10:11.170Z,29.40
2023-02-22T11:12:44.055Z,29.40
2023-02-22T11:15:33.343Z,29.30
2023-02-22T11:18:03.657Z,29.20
2023-02-22T11:20:42.984Z,29.20
2023-02-22T11:23:14.070Z,29.10
2023-02-22T11:25:45.273Z,29.00
2023-02-22T11:28:34.628Z,28.90
2023-02-22T11:31:19.212Z,28.90
2023-02-22T11:34:03.735Z,28.80
2023-02-22T11:36:43.991Z,28.80
2023-02-22T11:39:37.266Z,28.60
2023-02-22T11:42:30.339Z,28.60
2023-02-22T11:45:23.236Z,28.50
2023-02-22T11:48:06.631Z,28.40
2023-02-22T11:50:55.420Z,28.30
2023-02-22T11:53:51.707Z,28.20
2023-02-22T11:56:38.397Z,28.10
2023-02-22T11:59:47.302Z,28.00
2023-02-22T12:02:56.698Z,27.90
2023-02-22T12:06:01.252Z,27.80
2023-02-22T12:08:55.304Z,27.70
2023-02-22T12:11:59.058Z,27.60
2023-02-22T12:14:56.862Z,27.60
2023-02-22T12:18:00.175Z,27.50
2023-02-22T12:20:58.678Z,27.40
2023-02-22T12:23:52.329Z,27.30
2023-02-22T12:26:42.898Z,27.20
2023-02-22T12:29:43.678Z,27.20
2023-02-22T12:32:39.879Z,27.00
2023-02-22T12:35:30.169Z,27.00
2023-02-22T12:38:14.007Z,26.80
2023-02-22T12:41:07.874Z,26.80
2023-02-22T12:43:46.576Z,26.70
2023-02-22T12:46:45.711Z,26.70
2023-02-22T12:49:48.775Z,26.60
2023-02-22T12:52:44.229Z,26.60
2023-02-22T12:55:27.036Z,26.50
2023-02-22T12:58:26.928Z,26.50
2023-02-22T13:01:21.667Z,26.50
2023-02-22T13:03:51.648Z,26.40
2023-02-22T13:06:44.318Z,26.30
2023-02-22T13:09:53.133Z,26.20
2023-02-22T13:12:52.348Z,26.20
2023-02-22T13:15:34.982Z,26.10
2023-02-22T13:18:33.914Z,26.00
2023-02-22T13:21:25.095Z,25.90
2023-02-22T13:24:24.832Z,25.80
2023-02-22T13:27:06.294Z,25.80
2023-02-22T13:29:42.125Z,25.70
2023-02-22T13:32:37.862Z,25.70
2023-02-22T13:35:37.155Z,25.50
2023-02-22T13:38:45.919Z,25.50
2023-02-22T13:41:43.182Z,25.50
2023-02-22T13:44:48.194Z,25.40
2023-02-22T13:47:56.925Z,25.30
2023-02-22T13:51:06.482Z,25.30
2023-02-22T13:54:02.150Z,25.30
2023-02-22T13:56:32.106Z,25.20
2023-02-22T13:59:05.377Z,25.10
2023-02-22T14:01:47.472Z,24.90
2023-02-22T14:04:39.854Z,24.80
2023-02-22T14:07:48.945Z,24.70
2023-02-22T14:10:40.744Z,24.50
2023-02-22T14:13:11.053Z,24.40
2023-02-22T14:16:18.738Z,24.20
2023-02-22T14:18:52.600Z,24.10
2023-02-22T14:21:24.574Z,24.00
2023-02-22T14:23:57.569Z,24.00
2023-02-22T14:26:43.287Z,24.00
2023-02-22T14:29:20.641Z,23.90
2023-02-22T14:32:09.226Z,23.90
2023-02-22T14:34:51.144Z,23.80
2023-02-22T14:37:41.275Z,23.70
2023-02-22T14:40:32.956Z,23.80
2023-02-22T14:43:21.668Z,23.80
2023-02-22T14:46:06.957Z,23.90
2023-02-22T14:48:44.393Z,23.90
2023-02-22T14:51:27.099Z,23.90
2023-02-22T14:54:29.218Z,23.90
2023-02-22T14:57:29.512Z,23.90
2023-02-22T15:00:24.454Z,23.90
2023-02-22T15:02:58.894Z,23.90
2023-02-22T15:05:32.844Z,23.80
2023-02-22T15:08:07.380Z,23.90
2023-02-22T15:10:46.663Z,23.80
2023-02-22T15:13:25.389Z,23.80
2023-02-22T15:16:01.858Z,23.70
2023-02-22T15:18:47.868Z,23.70
2023-02-22T15:21:21.297Z,23.70
2023-02-22T15:24:02.691Z,23.70
2023-02-22T15:26:59.007Z,23.60
2023-02-22T15:29:34.708Z,23.60
2023-02-22T15:32:19.866Z,23.60
2023-02-22T15:34:49.572Z,23.60
2023-02-22T15:37:26.855Z,23.50
2023-02-22T15:40:07.198Z,23.50
2023-02-22T15:42:50.313Z,23.50
2023-02-22T15:45:26.875Z,23.40
2023-02-22T15:47:57.998Z,23.40
2023-02-22T15:50:31.196Z,23.30
2023-02-22T15:53:07.036Z,23.30
2023-02-22T15:55:42.669Z,23.30
2023-02-22T15:58:25.572Z,23.20
2023-02-22T16:01:16.015Z,23.10
2023-02-22T16:03:49.444Z,23.00
2023-02-22T16:06:40.131Z,23.00
2023-02-22T16:09:27.069Z,23.00
2023-02-22T16:12:27.070Z,22.90
2023-02-22T16:14:57.511Z,22.90
2023-02-22T16:17:42.684Z,22.90
2023-02-22T16:20:34.786Z,22.80
2023-02-22T16:23:25.635Z,22.80
2023-02-22T16:26:20.830Z,22.80
2023-02-22T16:29:10.523Z,22.70
2023-02-22T16:31:41.957Z,22.70
2023-02-22T16:34:12.650Z,22.80
2023-02-22T16:36:49.128Z,22.70
2023-02-22T16:39:31.640Z,22.70
2023-02-22T16:42:04.661Z,22.70
2023-02-22T16:44:36.239Z,22.60
2023-02-22T16:47:06.012Z,22.60
2023-02-22T16:49:35.676Z,22.50
2023-02-22T16:52:09.271Z,22.50
2023-02-22T16:54:47.776Z,22.50
2023-02-22T16:57:24.531Z,22.40
2023-02-22T16:59:55.286Z,22.40
2023-02-22T17:02:24.999Z,22.30
2023-02-22T17:04:54.789Z,22.30
2023-02-22T17:07:32.574Z,22.30
2023-02-22T17:10:02.339Z,22.30
2023-02-22T17:12:33.808Z,22.30
2023-02-22T17:15:05.227Z,22.30
2023-02-22T17:17:34.893Z,22.30
2023-02-22T17:20:09.974Z,22.30
2023-02-22T17:22:39.578Z,22.20
2023-02-22T17:25:22.608Z,22.20
2023-02-22T17:27:52.188Z,22.20
2023-02-22T17:30:24.022Z,22.20
2023-02-22T17:32:54.907Z,22.10
2023-02-22T17:35:28.714Z,22.10
2023-02-22T17:37:58.865Z,22.00
2023-02-22T17:40:28.976Z,21.90
2023-02-22T17:42:59.430Z,21.90
2023-02-22T17:45:29.534Z,21.90
2023-02-22T17:48:01.150Z,21.80
2023-02-22T17:50:33.418Z,21.80
2023-02-22T17:53:03.037Z,21.80
2023-02-22T17:55:33.003Z,21.80
2023-02-22T17:58:03.121Z,21.70
2023-02-22T18:00:36.183Z,21.70
2023-02-22T18:03:10.455Z,21.70
2023-02-22T18:05:47.839Z,21.60
2023-02-22T18:08:17.988Z,21.60
2023-02-22T18:10:49.089Z,21.60
2023-02-22T18:13:20.386Z,21.60
2023-02-22T18:15:50.369Z,21.60
2023-02-22T18:18:21.089Z,21.50
2023-02-22T18:20:53.118Z,21.50
2023-02-22T18:23:24.686Z,21.50
2023-02-22T18:26:09.645Z,21.50
2023-02-22T18:28:41.085Z,21.40
2023-02-22T18:31:16.395Z,21.40
2023-02-22T18:33:53.038Z,21.30
2023-02-22T18:36:24.290Z,21.30
2023-02-22T18:38:55.673Z,21.30
2023-02-22T18:41:26.834Z,21.20
2023-02-22T18:43:59.158Z,21.20
2023-02-22T18:46:31.463Z,21.20
2023-02-22T18:49:01.212Z,21.10
2023-02-22T18:51:30.975Z,21.00
2023-02-22T18:54:03.926Z,20.90
2023-02-22T18:56:35.582Z,20.80
2023-02-22T18:59:06.340Z,20.70
2023-02-22T19:01:42.557Z,20.60
2023-02-22T19:04:14.206Z,20.50
2023-02-22T19:06:46.496Z,20.40
2023-02-22T19:09:16.238Z,20.40
2023-02-22T19:11:50.005Z,20.40
2023-02-22T19:14:21.144Z,20.40
2023-02-22T19:16:54.407Z,20.40
2023-02-22T19:19:26.475Z,20.40
2023-02-22T19:21:58.013Z,20.40
2023-02-22T19:24:27.647Z,20.40
2023-02-22T19:27:01.520Z,20.40
2023-02-22T19:29:32.864Z,20.30
2023-02-22T19:32:02.546Z,20.30
2023-02-22T19:34:33.079Z,20.30
2023-02-22T19:37:03.465Z,20.40
2023-02-22T19:39:34.879Z,20.40
2023-02-22T19:42:06.534Z,20.40
2023-02-22T19:44:37.612Z,20.40
2023-02-22T19:47:11.759Z,20.40
2023-02-22T19:49:42.791Z,20.40
2023-02-22T19:52:12.444Z,20.40
2023-02-22T19:54:42.065Z,20.40
2023-02-22T19:57:11.793Z,20.40
2023-02-22T19:59:41.939Z,20.40
2023-02-22T20:02:13.539Z,20.40
2023-02-22T20:04:43.429Z,20.40
2023-02-22T20:07:13.005Z,20.40
2023-02-22T20:09:42.685Z,20.30
2023-02-22T20:12:12.259Z,20.30
2023-02-22T20:14:42.038Z,20.20
2023-02-22T20:17:11.991Z,20.20
2023-02-22T20:19:42.294Z,20.10
2023-02-22T20:22:12.472Z,20.10
2023-02-22T20:24:43.509Z,20.00
2023-02-22T20:27:14.594Z,19.90
2023-02-22T20:29:44.547Z,19.90
2023-02-22T20:32:16.994Z,20.00
2023-02-22T20:34:50.306Z,19.90
2023-02-22T20:37:20.696Z,19.90
2023-02-22T20:39:52.131Z,19.90
2023-02-22T20:42:22.267Z,19.90
2023-02-22T20:44:56.505Z,19.90
2023-02-22T20:47:26.065Z,19.90
2023-02-22T20:49:55.689Z,19.90
2023-02-22T20:52:25.466Z,19.90
2023-02-22T20:54:55.100Z,19.80
2023-02-22T20:57:24.794Z,19.90
2023-02-22T20:59:54.478Z,19.80
2023-02-22T21:04:44.566Z,19.80
2023-02-22T21:07:14.365Z,19.80
2023-02-22T21:09:44.089Z,19.80
2023-02-22T21:12:15.249Z,19.80
